sensor_id;sensor_type;location;lat;lon;timestamp;pressure;altitude;pressure_sealevel;temperature;humidity
49813;BME280;35706;52.100;5.056;2022-08-06T00:00:54;102631.63;;;16.79;60.00
49813;BME280;35706;52.100;5.056;2022-08-06T00:03:39;102623.56;;;16.81;60.10
49813;BME280;35706;52.100;5.056;2022-08-06T00:06:25;102628.34;;;16.66;60.24
49813;BME280;35706;52.100;5.056;2022-08-06T00:09:12;102629.06;;;16.68;60.86
49813;BME280;35706;52.100;5.056;2022-08-06T00:12:01;102634.66;;;17.05;59.74
49813;BME280;35706;52.100;5.056;2022-08-06T00:14:47;102639.81;;;16.97;59.38
49813;BME280;35706;52.100;5.056;2022-08-06T00:17:33;102637.09;;;17.18;59.42
49813;BME280;35706;52.100;5.056;2022-08-06T00:20:19;102635.28;;;16.57;60.74
49813;BME280;35706;52.100;5.056;2022-08-06T00:23:04;102644.13;;;16.37;62.31
49813;BME280;35706;52.100;5.056;2022-08-06T00:25:51;102637.31;;;16.44;61.60
49813;BME280;35706;52.100;5.056;2022-08-06T00:28:36;102641.13;;;16.51;61.50
49813;BME280;35706;52.100;5.056;2022-08-06T00:31:22;102647.16;;;16.32;62.04
49813;BME280;35706;52.100;5.056;2022-08-06T00:34:08;102653.34;;;16.63;60.99
49813;BME280;35706;52.100;5.056;2022-08-06T00:36:53;102653.50;;;16.93;60.23
49813;BME280;35706;52.100;5.056;2022-08-06T00:39:39;102661.78;;;16.78;60.70
49813;BME280;35706;52.100;5.056;2022-08-06T00:42:26;102654.78;;;16.98;60.41
49813;BME280;35706;52.100;5.056;2022-08-06T00:45:12;102658.03;;;17.12;59.81
49813;BME280;35706;52.100;5.056;2022-08-06T00:47:58;102665.13;;;16.92;59.78
49813;BME280;35706;52.100;5.056;2022-08-06T00:50:44;102663.09;;;16.53;61.44
49813;BME280;35706;52.100;5.056;2022-08-06T00:53:30;102668.50;;;16.31;61.80
49813;BME280;35706;52.100;5.056;2022-08-06T00:56:16;102673.16;;;16.59;61.38
49813;BME280;35706;52.100;5.056;2022-08-06T00:59:03;102662.94;;;16.34;62.28
49813;BME280;35706;52.100;5.056;2022-08-06T01:01:48;102676.97;;;16.03;63.21
49813;BME280;35706;52.100;5.056;2022-08-06T01:04:34;102675.56;;;16.20;62.57
49813;BME280;35706;52.100;5.056;2022-08-06T01:07:20;102675.97;;;16.58;61.73
49813;BME280;35706;52.100;5.056;2022-08-06T01:10:06;102682.19;;;16.78;60.52
49813;BME280;35706;52.100;5.056;2022-08-06T01:12:52;102684.59;;;15.97;63.43
49813;BME280;35706;52.100;5.056;2022-08-06T01:15:40;102686.16;;;15.99;63.63
49813;BME280;35706;52.100;5.056;2022-08-06T01:18:31;102681.13;;;15.85;64.70
49813;BME280;35706;52.100;5.056;2022-08-06T01:31:10;102695.75;;;16.12;63.75
49813;BME280;35706;52.100;5.056;2022-08-06T01:34:01;102689.72;;;15.77;64.92
49813;BME280;35706;52.100;5.056;2022-08-06T01:36:54;102689.69;;;15.88;64.48
49813;BME280;35706;52.100;5.056;2022-08-06T01:39:42;102685.22;;;15.89;64.49
49813;BME280;35706;52.100;5.056;2022-08-06T01:42:31;102698.63;;;15.76;64.91
49813;BME280;35706;52.100;5.056;2022-08-06T01:45:19;102693.56;;;15.84;64.49
49813;BME280;35706;52.100;5.056;2022-08-06T01:48:17;102692.00;;;15.82;64.61
49813;BME280;35706;52.100;5.056;2022-08-06T01:51:05;102697.91;;;15.74;64.73
49813;BME280;35706;52.100;5.056;2022-08-06T01:53:53;102699.63;;;15.75;64.90
49813;BME280;35706;52.100;5.056;2022-08-06T01:56:41;102699.72;;;16.17;63.32
49813;BME280;35706;52.100;5.056;2022-08-06T01:59:33;102704.88;;;16.40;62.41
49813;BME280;35706;52.100;5.056;2022-08-06T02:02:21;102695.75;;;16.12;64.02
49813;BME280;35706;52.100;5.056;2022-08-06T02:05:08;102703.56;;;15.81;64.71
49813;BME280;35706;52.100;5.056;2022-08-06T02:07:56;102702.34;;;15.85;64.93
49813;BME280;35706;52.100;5.056;2022-08-06T02:10:44;102701.06;;;15.79;64.64
49813;BME280;35706;52.100;5.056;2022-08-06T02:13:31;102697.97;;;15.95;64.30
49813;BME280;35706;52.100;5.056;2022-08-06T02:16:20;102702.81;;;16.22;62.78
49813;BME280;35706;52.100;5.056;2022-08-06T02:19:09;102705.75;;;15.76;64.12
49813;BME280;35706;52.100;5.056;2022-08-06T02:21:58;102704.28;;;15.83;64.04
49813;BME280;35706;52.100;5.056;2022-08-06T02:24:46;102705.38;;;16.13;63.21
49813;BME280;35706;52.100;5.056;2022-08-06T02:27:32;102697.59;;;16.32;63.32
49813;BME280;35706;52.100;5.056;2022-08-06T02:30:18;102697.94;;;16.48;62.66
49813;BME280;35706;52.100;5.056;2022-08-06T02:33:05;102711.06;;;15.76;64.75
49813;BME280;35706;52.100;5.056;2022-08-06T02:36:07;102713.84;;;15.52;65.72
49813;BME280;35706;52.100;5.056;2022-08-06T02:39:05;102708.06;;;15.58;66.14
49813;BME280;35706;52.100;5.056;2022-08-06T02:45:15;102706.38;;;15.57;65.68
49813;BME280;35706;52.100;5.056;2022-08-06T02:48:18;102699.72;;;15.74;65.32
49813;BME280;35706;52.100;5.056;2022-08-06T02:51:08;102700.78;;;16.15;64.08
49813;BME280;35706;52.100;5.056;2022-08-06T02:54:02;102707.78;;;15.83;64.84
49813;BME280;35706;52.100;5.056;2022-08-06T02:56:51;102705.75;;;15.53;65.91
49813;BME280;35706;52.100;5.056;2022-08-06T02:59:45;102709.66;;;15.26;66.94
49813;BME280;35706;52.100;5.056;2022-08-06T03:02:32;102711.44;;;15.48;66.47
49813;BME280;35706;52.100;5.056;2022-08-06T03:05:21;102713.09;;;15.83;65.07
49813;BME280;35706;52.100;5.056;2022-08-06T03:08:09;102708.00;;;16.24;64.31
49813;BME280;35706;52.100;5.056;2022-08-06T03:10:56;102708.72;;;16.47;63.08
49813;BME280;35706;52.100;5.056;2022-08-06T03:13:43;102704.69;;;16.53;63.12
49813;BME280;35706;52.100;5.056;2022-08-06T03:16:34;102715.66;;;16.38;63.41
49813;BME280;35706;52.100;5.056;2022-08-06T03:19:20;102718.53;;;16.14;63.95
49813;BME280;35706;52.100;5.056;2022-08-06T03:22:08;102712.94;;;15.85;65.34
49813;BME280;35706;52.100;5.056;2022-08-06T03:24:56;102720.38;;;16.35;63.48
49813;BME280;35706;52.100;5.056;2022-08-06T03:27:44;102725.19;;;16.29;63.56
49813;BME280;35706;52.100;5.056;2022-08-06T03:30:31;102737.81;;;15.27;66.96
49813;BME280;35706;52.100;5.056;2022-08-06T03:33:17;102730.59;;;15.30;67.26
49813;BME280;35706;52.100;5.056;2022-08-06T03:36:04;102732.75;;;15.47;66.05
49813;BME280;35706;52.100;5.056;2022-08-06T03:39:00;102741.31;;;15.17;67.63
49813;BME280;35706;52.100;5.056;2022-08-06T03:41:47;102735.69;;;15.33;67.36
49813;BME280;35706;52.100;5.056;2022-08-06T03:44:33;102738.06;;;15.24;67.94
49813;BME280;35706;52.100;5.056;2022-08-06T03:47:22;102728.31;;;15.47;67.13
49813;BME280;35706;52.100;5.056;2022-08-06T03:53:12;102722.38;;;16.10;65.45
49813;BME280;35706;52.100;5.056;2022-08-06T03:56:02;102732.56;;;15.94;65.32
49813;BME280;35706;52.100;5.056;2022-08-06T03:58:50;102737.38;;;16.00;65.35
49813;BME280;35706;52.100;5.056;2022-08-06T04:01:41;102726.31;;;16.27;64.92
49813;BME280;35706;52.100;5.056;2022-08-06T04:04:28;102734.13;;;16.28;64.80
49813;BME280;35706;52.100;5.056;2022-08-06T04:07:16;102730.47;;;16.41;64.07
49813;BME280;35706;52.100;5.056;2022-08-06T04:10:02;102741.72;;;16.33;64.24
49813;BME280;35706;52.100;5.056;2022-08-06T04:12:48;102744.66;;;16.51;63.38
49813;BME280;35706;52.100;5.056;2022-08-06T04:15:36;102742.97;;;16.50;63.45
49813;BME280;35706;52.100;5.056;2022-08-06T04:18:28;102741.72;;;16.33;63.38
49813;BME280;35706;52.100;5.056;2022-08-06T04:21:17;102747.81;;;16.45;63.46
49813;BME280;35706;52.100;5.056;2022-08-06T04:24:04;102754.81;;;16.46;63.29
49813;BME280;35706;52.100;5.056;2022-08-06T04:26:52;102759.25;;;15.81;64.93
49813;BME280;35706;52.100;5.056;2022-08-06T04:29:39;102756.09;;;15.87;64.88
49813;BME280;35706;52.100;5.056;2022-08-06T04:32:26;102760.81;;;15.61;65.47
49813;BME280;35706;52.100;5.056;2022-08-06T04:35:13;102750.81;;;15.76;65.29
49813;BME280;35706;52.100;5.056;2022-08-06T04:38:00;102751.66;;;15.87;65.25
49813;BME280;35706;52.100;5.056;2022-08-06T04:40:46;102757.00;;;16.08;65.05
49813;BME280;35706;52.100;5.056;2022-08-06T04:43:32;102753.84;;;16.15;65.05
49813;BME280;35706;52.100;5.056;2022-08-06T04:46:20;102757.38;;;16.04;64.59
49813;BME280;35706;52.100;5.056;2022-08-06T04:49:06;102755.59;;;16.25;63.91
49813;BME280;35706;52.100;5.056;2022-08-06T04:51:52;102761.91;;;16.24;64.60
49813;BME280;35706;52.100;5.056;2022-08-06T04:54:40;102765.53;;;16.23;64.35
49813;BME280;35706;52.100;5.056;2022-08-06T04:57:26;102760.34;;;16.22;64.63
49813;BME280;35706;52.100;5.056;2022-08-06T05:00:12;102769.59;;;16.27;64.57
49813;BME280;35706;52.100;5.056;2022-08-06T05:02:58;102774.91;;;16.27;64.39
49813;BME280;35706;52.100;5.056;2022-08-06T05:06:00;102779.59;;;16.35;63.34
49813;BME280;35706;52.100;5.056;2022-08-06T05:08:51;102788.28;;;16.58;62.95
49813;BME280;35706;52.100;5.056;2022-08-06T05:11:50;102794.56;;;16.36;63.56
49813;BME280;35706;52.100;5.056;2022-08-06T05:14:52;102787.09;;;16.30;63.69
49813;BME280;35706;52.100;5.056;2022-08-06T05:17:48;102797.53;;;15.99;64.73
49813;BME280;35706;52.100;5.056;2022-08-06T05:20:37;102794.31;;;15.51;66.68
49813;BME280;35706;52.100;5.056;2022-08-06T05:23:27;102799.03;;;15.58;66.56
49813;BME280;35706;52.100;5.056;2022-08-06T05:26:15;102808.50;;;15.16;68.47
49813;BME280;35706;52.100;5.056;2022-08-06T05:29:02;102804.09;;;15.39;67.82
49813;BME280;35706;52.100;5.056;2022-08-06T05:31:48;102815.38;;;15.30;68.35
49813;BME280;35706;52.100;5.056;2022-08-06T05:34:34;102812.25;;;15.24;68.48
49813;BME280;35706;52.100;5.056;2022-08-06T05:37:20;102812.16;;;15.37;68.35
49813;BME280;35706;52.100;5.056;2022-08-06T05:40:06;102809.13;;;15.64;67.43
49813;BME280;35706;52.100;5.056;2022-08-06T05:42:52;102817.31;;;15.61;67.50
49813;BME280;35706;52.100;5.056;2022-08-06T05:45:39;102819.13;;;15.61;68.13
49813;BME280;35706;52.100;5.056;2022-08-06T05:48:29;102823.34;;;15.63;67.66
49813;BME280;35706;52.100;5.056;2022-08-06T05:51:42;102819.28;;;16.37;64.99
49813;BME280;35706;52.100;5.056;2022-08-06T05:54:48;102818.66;;;16.01;66.61
49813;BME280;35706;52.100;5.056;2022-08-06T05:57:38;102821.78;;;15.95;66.80
49813;BME280;35706;52.100;5.056;2022-08-06T06:00:26;102823.03;;;16.34;65.30
49813;BME280;35706;52.100;5.056;2022-08-06T06:03:15;102827.41;;;16.24;64.79
49813;BME280;35706;52.100;5.056;2022-08-06T06:06:02;102824.75;;;16.24;64.62
49813;BME280;35706;52.100;5.056;2022-08-06T06:08:47;102844.81;;;16.38;63.84
49813;BME280;35706;52.100;5.056;2022-08-06T06:11:34;102832.31;;;16.28;64.30
49813;BME280;35706;52.100;5.056;2022-08-06T06:14:30;102840.50;;;16.25;64.29
49813;BME280;35706;52.100;5.056;2022-08-06T06:17:45;102838.28;;;16.53;64.16
49813;BME280;35706;52.100;5.056;2022-08-06T06:21:02;102842.94;;;16.93;62.43
49813;BME280;35706;52.100;5.056;2022-08-06T06:24:07;102841.94;;;17.67;60.27
49813;BME280;35706;52.100;5.056;2022-08-06T06:26:59;102844.09;;;17.52;60.43
49813;BME280;35706;52.100;5.056;2022-08-06T06:30:04;102842.53;;;18.01;58.71
49813;BME280;35706;52.100;5.056;2022-08-06T06:33:13;102842.81;;;17.77;59.53
49813;BME280;35706;52.100;5.056;2022-08-06T06:36:05;102848.75;;;18.50;56.42
49813;BME280;35706;52.100;5.056;2022-08-06T06:39:04;102846.75;;;18.62;56.62
49813;BME280;35706;52.100;5.056;2022-08-06T06:42:03;102850.28;;;19.02;55.52
49813;BME280;35706;52.100;5.056;2022-08-06T06:45:05;102851.88;;;19.32;53.92
49813;BME280;35706;52.100;5.056;2022-08-06T06:48:01;102850.56;;;18.79;54.81
49813;BME280;35706;52.100;5.056;2022-08-06T06:50:51;102851.47;;;18.00;57.21
49813;BME280;35706;52.100;5.056;2022-08-06T06:53:40;102852.41;;;18.69;55.66
49813;BME280;35706;52.100;5.056;2022-08-06T06:56:35;102862.72;;;19.11;54.37
49813;BME280;35706;52.100;5.056;2022-08-06T06:59:27;102859.09;;;19.02;53.87
49813;BME280;35706;52.100;5.056;2022-08-06T07:02:18;102855.47;;;19.03;53.23
49813;BME280;35706;52.100;5.056;2022-08-06T07:05:06;102857.72;;;18.98;53.28
49813;BME280;35706;52.100;5.056;2022-08-06T07:07:53;102859.50;;;19.27;52.80
49813;BME280;35706;52.100;5.056;2022-08-06T07:10:41;102853.84;;;19.40;52.37
49813;BME280;35706;52.100;5.056;2022-08-06T07:13:28;102858.88;;;19.43;51.58
49813;BME280;35706;52.100;5.056;2022-08-06T07:16:17;102865.78;;;19.36;52.06
49813;BME280;35706;52.100;5.056;2022-08-06T07:19:04;102863.28;;;19.62;51.52
49813;BME280;35706;52.100;5.056;2022-08-06T07:21:51;102867.91;;;19.69;51.22
49813;BME280;35706;52.100;5.056;2022-08-06T07:24:37;102868.19;;;19.76;50.16
49813;BME280;35706;52.100;5.056;2022-08-06T07:27:26;102869.38;;;19.44;50.05
49813;BME280;35706;52.100;5.056;2022-08-06T07:30:16;102869.63;;;19.61;50.85
49813;BME280;35706;52.100;5.056;2022-08-06T07:33:03;102872.25;;;19.70;49.55
49813;BME280;35706;52.100;5.056;2022-08-06T07:35:50;102876.91;;;19.68;48.87
49813;BME280;35706;52.100;5.056;2022-08-06T07:38:40;102880.56;;;19.58;49.33
49813;BME280;35706;52.100;5.056;2022-08-06T07:41:27;102870.47;;;19.71;49.83
49813;BME280;35706;52.100;5.056;2022-08-06T07:44:14;102875.16;;;19.40;49.63
49813;BME280;35706;52.100;5.056;2022-08-06T07:47:01;102869.19;;;19.65;49.23
49813;BME280;35706;52.100;5.056;2022-08-06T07:49:55;102870.19;;;19.64;49.36
49813;BME280;35706;52.100;5.056;2022-08-06T07:52:42;102877.88;;;19.67;49.54
49813;BME280;35706;52.100;5.056;2022-08-06T07:55:29;102878.56;;;19.69;49.78
49813;BME280;35706;52.100;5.056;2022-08-06T07:58:15;102879.09;;;19.83;49.46
49813;BME280;35706;52.100;5.056;2022-08-06T08:01:02;102886.06;;;19.93;49.68
49813;BME280;35706;52.100;5.056;2022-08-06T08:03:48;102879.25;;;19.81;49.42
49813;BME280;35706;52.100;5.056;2022-08-06T08:07:00;102878.75;;;19.96;49.60
49813;BME280;35706;52.100;5.056;2022-08-06T08:09:47;102878.38;;;19.90;49.15
49813;BME280;35706;52.100;5.056;2022-08-06T08:12:36;102881.47;;;20.13;49.25
49813;BME280;35706;52.100;5.056;2022-08-06T08:15:22;102887.38;;;20.35;48.83
49813;BME280;35706;52.100;5.056;2022-08-06T08:18:08;102887.75;;;20.22;48.15
49813;BME280;35706;52.100;5.056;2022-08-06T08:20:54;102890.09;;;20.25;48.17
49813;BME280;35706;52.100;5.056;2022-08-06T08:23:43;102888.75;;;20.39;48.00
49813;BME280;35706;52.100;5.056;2022-08-06T08:26:29;102887.09;;;20.56;47.92
49813;BME280;35706;52.100;5.056;2022-08-06T08:29:15;102891.16;;;20.60;47.76
49813;BME280;35706;52.100;5.056;2022-08-06T08:32:01;102890.41;;;20.22;48.34
49813;BME280;35706;52.100;5.056;2022-08-06T08:34:48;102900.59;;;20.54;48.37
49813;BME280;35706;52.100;5.056;2022-08-06T08:37:34;102892.72;;;20.53;45.95
49813;BME280;35706;52.100;5.056;2022-08-06T08:40:21;102901.28;;;20.39;47.31
49813;BME280;35706;52.100;5.056;2022-08-06T08:43:07;102898.13;;;19.98;48.23
49813;BME280;35706;52.100;5.056;2022-08-06T08:45:57;102896.22;;;20.18;47.96
49813;BME280;35706;52.100;5.056;2022-08-06T08:48:43;102897.69;;;20.30;46.48
49813;BME280;35706;52.100;5.056;2022-08-06T08:51:31;102903.03;;;20.30;46.46
49813;BME280;35706;52.100;5.056;2022-08-06T08:54:23;102905.00;;;20.28;47.29
49813;BME280;35706;52.100;5.056;2022-08-06T08:57:10;102902.22;;;20.65;46.16
49813;BME280;35706;52.100;5.056;2022-08-06T08:59:56;102893.66;;;20.80;45.82
49813;BME280;35706;52.100;5.056;2022-08-06T09:02:42;102897.88;;;20.82;45.17
49813;BME280;35706;52.100;5.056;2022-08-06T09:05:29;102894.00;;;20.77;46.07
49813;BME280;35706;52.100;5.056;2022-08-06T09:08:16;102892.97;;;20.96;45.72
49813;BME280;35706;52.100;5.056;2022-08-06T09:11:03;102903.19;;;21.00;45.43
49813;BME280;35706;52.100;5.056;2022-08-06T09:13:49;102902.41;;;21.08;45.20
49813;BME280;35706;52.100;5.056;2022-08-06T09:16:36;102908.38;;;21.02;45.76
49813;BME280;35706;52.100;5.056;2022-08-06T09:19:22;102904.66;;;21.21;45.69
49813;BME280;35706;52.100;5.056;2022-08-06T09:22:08;102899.00;;;21.42;44.72
49813;BME280;35706;52.100;5.056;2022-08-06T09:24:54;102908.97;;;21.40;45.19
49813;BME280;35706;52.100;5.056;2022-08-06T09:27:40;102908.22;;;21.47;43.99
49813;BME280;35706;52.100;5.056;2022-08-06T09:30:25;102898.25;;;21.58;44.20
49813;BME280;35706;52.100;5.056;2022-08-06T09:33:12;102910.59;;;21.06;44.23
49813;BME280;35706;52.100;5.056;2022-08-06T09:36:00;102909.66;;;21.15;44.96
49813;BME280;35706;52.100;5.056;2022-08-06T09:38:54;102908.81;;;21.41;43.56
49813;BME280;35706;52.100;5.056;2022-08-06T09:41:46;102898.56;;;21.54;43.88
49813;BME280;35706;52.100;5.056;2022-08-06T09:44:33;102905.75;;;21.80;43.23
49813;BME280;35706;52.100;5.056;2022-08-06T09:47:19;102900.78;;;21.93;43.05
49813;BME280;35706;52.100;5.056;2022-08-06T09:50:05;102899.97;;;22.09;43.42
49813;BME280;35706;52.100;5.056;2022-08-06T09:53:12;102896.47;;;21.40;43.72
49813;BME280;35706;52.100;5.056;2022-08-06T09:55:58;102890.56;;;21.89;42.51
49813;BME280;35706;52.100;5.056;2022-08-06T09:58:44;102895.88;;;21.81;40.31
49813;BME280;35706;52.100;5.056;2022-08-06T10:01:42;102899.59;;;21.35;40.60
49813;BME280;35706;52.100;5.056;2022-08-06T10:04:28;102906.84;;;21.17;42.82
49813;BME280;35706;52.100;5.056;2022-08-06T10:07:14;102898.09;;;20.89;41.64
49813;BME280;35706;52.100;5.056;2022-08-06T10:10:05;102900.94;;;21.13;42.46
49813;BME280;35706;52.100;5.056;2022-08-06T10:13:10;102896.28;;;20.89;41.63
49813;BME280;35706;52.100;5.056;2022-08-06T10:15:59;102900.00;;;20.97;43.24
49813;BME280;35706;52.100;5.056;2022-08-06T10:18:47;102900.63;;;21.17;43.58
49813;BME280;35706;52.100;5.056;2022-08-06T10:21:33;102903.63;;;21.13;41.84
49813;BME280;35706;52.100;5.056;2022-08-06T10:24:20;102900.53;;;21.00;42.23
49813;BME280;35706;52.100;5.056;2022-08-06T10:27:08;102898.63;;;21.19;42.55
49813;BME280;35706;52.100;5.056;2022-08-06T10:29:58;102899.66;;;21.18;41.59
49813;BME280;35706;52.100;5.056;2022-08-06T10:32:47;102910.59;;;21.06;43.49
49813;BME280;35706;52.100;5.056;2022-08-06T10:35:38;102903.72;;;21.04;43.92
49813;BME280;35706;52.100;5.056;2022-08-06T10:38:26;102901.28;;;21.10;44.34
49813;BME280;35706;52.100;5.056;2022-08-06T10:41:13;102903.53;;;20.79;44.67
49813;BME280;35706;52.100;5.056;2022-08-06T10:43:59;102902.13;;;21.11;45.52
49813;BME280;35706;52.100;5.056;2022-08-06T10:46:45;102898.38;;;21.48;42.87
49813;BME280;35706;52.100;5.056;2022-08-06T10:49:32;102896.91;;;21.53;42.09
49813;BME280;35706;52.100;5.056;2022-08-06T10:52:18;102898.81;;;21.69;41.48
49813;BME280;35706;52.100;5.056;2022-08-06T10:55:05;102897.03;;;21.86;41.00
49813;BME280;35706;52.100;5.056;2022-08-06T10:57:50;102900.81;;;22.02;40.31
49813;BME280;35706;52.100;5.056;2022-08-06T11:00:36;102896.69;;;22.24;40.05
49813;BME280;35706;52.100;5.056;2022-08-06T11:03:45;102895.72;;;22.25;39.83
49813;BME280;35706;52.100;5.056;2022-08-06T11:12:44;102881.69;;;22.64;38.94
49813;BME280;35706;52.100;5.056;2022-08-06T11:15:36;102885.72;;;22.84;39.52
49813;BME280;35706;52.100;5.056;2022-08-06T11:18:22;102878.50;;;22.76;38.35
49813;BME280;35706;52.100;5.056;2022-08-06T11:21:37;102883.56;;;23.04;40.10
49813;BME280;35706;52.100;5.056;2022-08-06T11:24:23;102880.69;;;22.97;39.58
49813;BME280;35706;52.100;5.056;2022-08-06T11:27:54;102873.81;;;22.79;39.27
49813;BME280;35706;52.100;5.056;2022-08-06T11:30:51;102871.13;;;22.46;41.51
49813;BME280;35706;52.100;5.056;2022-08-06T11:36:26;102878.16;;;22.39;42.92
49813;BME280;35706;52.100;5.056;2022-08-06T11:39:13;102877.81;;;22.33;43.15
49813;BME280;35706;52.100;5.056;2022-08-06T11:42:00;102875.75;;;22.19;42.35
49813;BME280;35706;52.100;5.056;2022-08-06T11:45:00;102881.81;;;22.29;43.09
49813;BME280;35706;52.100;5.056;2022-08-06T11:48:15;102881.47;;;22.32;42.51
49813;BME280;35706;52.100;5.056;2022-08-06T11:51:37;102877.84;;;22.42;42.53
49813;BME280;35706;52.100;5.056;2022-08-06T11:54:30;102868.97;;;22.82;40.16
49813;BME280;35706;52.100;5.056;2022-08-06T11:57:19;102880.19;;;23.10;39.05
49813;BME280;35706;52.100;5.056;2022-08-06T12:00:07;102870.97;;;23.21;38.72
49813;BME280;35706;52.100;5.056;2022-08-06T12:02:57;102866.06;;;23.41;40.08
49813;BME280;35706;52.100;5.056;2022-08-06T12:05:43;102869.47;;;23.66;38.71
49813;BME280;35706;52.100;5.056;2022-08-06T12:08:30;102870.28;;;23.75;39.06
49813;BME280;35706;52.100;5.056;2022-08-06T12:11:24;102859.88;;;23.80;38.36
49813;BME280;35706;52.100;5.056;2022-08-06T12:14:39;102862.75;;;23.78;40.03
49813;BME280;35706;52.100;5.056;2022-08-06T12:17:28;102864.44;;;23.80;37.09
49813;BME280;35706;52.100;5.056;2022-08-06T12:20:13;102857.03;;;23.73;37.81
49813;BME280;35706;52.100;5.056;2022-08-06T12:23:01;102860.16;;;23.54;38.02
49813;BME280;35706;52.100;5.056;2022-08-06T12:25:47;102851.88;;;23.64;39.02
49813;BME280;35706;52.100;5.056;2022-08-06T12:28:34;102856.78;;;23.52;36.95
49813;BME280;35706;52.100;5.056;2022-08-06T12:31:31;102853.34;;;22.94;36.78
49813;BME280;35706;52.100;5.056;2022-08-06T12:34:24;102848.66;;;22.88;36.79
49813;BME280;35706;52.100;5.056;2022-08-06T12:37:11;102851.03;;;22.83;36.83
49813;BME280;35706;52.100;5.056;2022-08-06T12:39:56;102847.16;;;22.69;37.78
49813;BME280;35706;52.100;5.056;2022-08-06T12:45:56;102846.75;;;23.46;38.80
49813;BME280;35706;52.100;5.056;2022-08-06T12:48:47;102841.53;;;23.44;38.60
49813;BME280;35706;52.100;5.056;2022-08-06T12:51:33;102842.22;;;23.46;39.43
49813;BME280;35706;52.100;5.056;2022-08-06T12:54:28;102839.13;;;23.57;38.29
49813;BME280;35706;52.100;5.056;2022-08-06T12:57:27;102842.19;;;23.54;37.60
49813;BME280;35706;52.100;5.056;2022-08-06T13:00:14;102843.59;;;23.82;38.25
49813;BME280;35706;52.100;5.056;2022-08-06T13:03:01;102835.03;;;23.86;38.57
49813;BME280;35706;52.100;5.056;2022-08-06T13:05:49;102837.63;;;23.63;37.68
49813;BME280;35706;52.100;5.056;2022-08-06T13:08:38;102837.19;;;24.14;37.42
49813;BME280;35706;52.100;5.056;2022-08-06T13:11:30;102828.44;;;24.20;35.13
49813;BME280;35706;52.100;5.056;2022-08-06T13:14:16;102833.78;;;24.51;36.97
49813;BME280;35706;52.100;5.056;2022-08-06T13:17:11;102837.09;;;24.76;35.07
49813;BME280;35706;52.100;5.056;2022-08-06T13:19:57;102824.44;;;24.62;33.00
49813;BME280;35706;52.100;5.056;2022-08-06T13:22:50;102824.06;;;24.19;35.32
49813;BME280;35706;52.100;5.056;2022-08-06T13:25:45;102832.84;;;24.59;33.28
49813;BME280;35706;52.100;5.056;2022-08-06T13:28:30;102828.06;;;24.23;33.31
49813;BME280;35706;52.100;5.056;2022-08-06T13:31:18;102826.28;;;24.38;33.19
49813;BME280;35706;52.100;5.056;2022-08-06T13:34:05;102824.72;;;24.44;33.15
49813;BME280;35706;52.100;5.056;2022-08-06T13:36:53;102816.59;;;24.75;34.76
49813;BME280;35706;52.100;5.056;2022-08-06T13:39:50;102820.06;;;24.61;34.08
49813;BME280;35706;52.100;5.056;2022-08-06T13:45:34;102823.28;;;25.09;34.41
49813;BME280;35706;52.100;5.056;2022-08-06T13:48:19;102820.88;;;25.14;35.19
49813;BME280;35706;52.100;5.056;2022-08-06T13:51:10;102821.72;;;25.00;36.00
49813;BME280;35706;52.100;5.056;2022-08-06T13:53:56;102823.00;;;24.74;36.30
49813;BME280;35706;52.100;5.056;2022-08-06T13:56:42;102819.28;;;24.29;36.04
49813;BME280;35706;52.100;5.056;2022-08-06T13:59:29;102817.81;;;24.27;38.54
49813;BME280;35706;52.100;5.056;2022-08-06T14:02:15;102817.09;;;24.10;37.44
49813;BME280;35706;52.100;5.056;2022-08-06T14:05:01;102813.13;;;23.97;36.70
49813;BME280;35706;52.100;5.056;2022-08-06T14:07:49;102819.16;;;24.00;36.33
49813;BME280;35706;52.100;5.056;2022-08-06T14:10:39;102823.78;;;24.14;36.07
49813;BME280;35706;52.100;5.056;2022-08-06T14:13:25;102824.06;;;24.19;37.10
49813;BME280;35706;52.100;5.056;2022-08-06T14:16:11;102814.97;;;23.97;35.88
49813;BME280;35706;52.100;5.056;2022-08-06T14:18:58;102811.75;;;24.25;37.45
49813;BME280;35706;52.100;5.056;2022-08-06T14:21:43;102807.09;;;24.42;36.73
49813;BME280;35706;52.100;5.056;2022-08-06T14:24:29;102812.38;;;24.35;37.76
49813;BME280;35706;52.100;5.056;2022-08-06T14:27:15;102810.16;;;24.38;35.88
49813;BME280;35706;52.100;5.056;2022-08-06T14:30:00;102811.06;;;24.54;37.32
49813;BME280;35706;52.100;5.056;2022-08-06T14:32:46;102813.88;;;24.61;36.13
49813;BME280;35706;52.100;5.056;2022-08-06T14:35:32;102817.13;;;24.48;37.27
49813;BME280;35706;52.100;5.056;2022-08-06T14:38:19;102804.06;;;24.83;35.65
49813;BME280;35706;52.100;5.056;2022-08-06T14:41:05;102811.19;;;24.75;36.03
49813;BME280;35706;52.100;5.056;2022-08-06T14:44:10;102796.47;;;24.25;36.21
49813;BME280;35706;52.100;5.056;2022-08-06T14:47:14;102795.31;;;24.28;36.41
49813;BME280;35706;52.100;5.056;2022-08-06T14:50:01;102804.31;;;24.12;36.35
49813;BME280;35706;52.100;5.056;2022-08-06T14:52:49;102802.94;;;24.39;36.05
49813;BME280;35706;52.100;5.056;2022-08-06T14:55:38;102794.22;;;24.14;35.58
49813;BME280;35706;52.100;5.056;2022-08-06T14:58:23;102789.72;;;24.29;36.82
49813;BME280;35706;52.100;5.056;2022-08-06T15:01:09;102785.06;;;24.23;37.41
49813;BME280;35706;52.100;5.056;2022-08-06T15:03:55;102792.53;;;24.13;37.36
49813;BME280;35706;52.100;5.056;2022-08-06T15:06:40;102796.22;;;23.89;35.76
49813;BME280;35706;52.100;5.056;2022-08-06T15:09:26;102793.66;;;23.95;35.35
49813;BME280;35706;52.100;5.056;2022-08-06T15:12:12;102778.63;;;24.09;38.50
49813;BME280;35706;52.100;5.056;2022-08-06T15:14:58;102783.34;;;24.30;35.87
49813;BME280;35706;52.100;5.056;2022-08-06T15:17:43;102781.66;;;24.29;34.89